createdAt,value
2022-08-07T00:00:39.973Z,2.50
2022-08-07T00:03:11.747Z,2.65
2022-08-07T00:05:41.614Z,2.40
2022-08-07T00:08:10.079Z,2.50
2022-08-07T00:10:48.153Z,2.27
2022-08-07T00:13:25.757Z,2.20
2022-08-07T00:15:55.246Z,2.28
2022-08-07T00:18:25.684Z,2.65
2022-08-07T00:21:01.360Z,2.40
2022-08-07T00:23:31.295Z,2.20
2022-08-07T00:26:13.383Z,2.40
2022-08-07T00:28:55.462Z,2.40
2022-08-07T00:31:38.118Z,2.60
2022-08-07T00:34:09.543Z,2.22
2022-08-07T00:36:43.118Z,2.43
2022-08-07T00:39:17.168Z,2.10
2022-08-07T00:42:01.665Z,2.30
2022-08-07T00:44:33.524Z,2.10
2022-08-07T00:47:02.617Z,2.40
2022-08-07T00:50:20.697Z,2.20
2022-08-07T00:52:19.988Z,2.15
2022-08-07T00:54:53.353Z,2.20
2022-08-07T00:57:25.806Z,2.15
2022-08-07T00:59:54.580Z,2.20
2022-08-07T01:02:28.609Z,2.20
2022-08-07T01:04:58.637Z,2.20
2022-08-07T01:07:29.290Z,2.50
2022-08-07T01:10:05.812Z,2.20
2022-08-07T01:12:39.799Z,2.17
2022-08-07T01:15:21.555Z,2.00
2022-08-07T01:17:49.526Z,2.05
2022-08-07T01:20:18.470Z,2.10
2022-08-07T01:22:54.159Z,2.20
2022-08-07T01:25:54.728Z,2.33
2022-08-07T01:28:18.542Z,2.33
2022-08-07T01:30:48.937Z,2.15
2022-08-07T01:33:19.718Z,1.87
2022-08-07T01:35:53.828Z,2.33
2022-08-07T01:38:25.199Z,2.03
2022-08-07T01:40:56.261Z,2.10
2022-08-07T01:43:25.961Z,1.90
2022-08-07T01:45:55.526Z,2.30
2022-08-07T01:48:30.215Z,2.03
2022-08-07T01:51:24.322Z,2.22
2022-08-07T01:54:11.715Z,2.10
2022-08-07T01:56:51.042Z,2.15
2022-08-07T01:59:30.957Z,2.28
2022-08-07T02:02:10.461Z,1.90
2022-08-07T02:04:55.756Z,2.15
2022-08-07T02:07:36.184Z,1.83
2022-08-07T02:10:24.922Z,2.00
2022-08-07T02:12:54.735Z,2.20
2022-08-07T02:15:27.938Z,2.15
2022-08-07T02:17:59.914Z,1.90
2022-08-07T02:20:28.427Z,2.20
2022-08-07T02:23:03.381Z,1.67
2022-08-07T02:26:31.974Z,1.90
2022-08-07T02:28:25.527Z,1.85
2022-08-07T02:31:00.163Z,1.83
2022-08-07T02:34:03.146Z,2.00
2022-08-07T02:36:32.695Z,1.50
2022-08-07T02:39:16.277Z,1.87
2022-08-07T02:41:54.190Z,1.90
2022-08-07T02:44:26.869Z,1.92
2022-08-07T02:47:04.239Z,1.60
2022-08-07T02:49:57.726Z,1.77
2022-08-07T02:52:34.945Z,1.98
2022-08-07T02:55:27.283Z,1.90
2022-08-07T02:58:00.041Z,2.20
2022-08-07T03:00:30.521Z,2.27
2022-08-07T03:02:58.925Z,2.37
2022-08-07T03:05:29.167Z,2.15
2022-08-07T03:08:08.083Z,2.35
2022-08-07T03:10:40.700Z,1.90
2022-08-07T03:13:19.731Z,1.80
2022-08-07T03:15:56.101Z,2.00
2022-08-07T03:18:34.698Z,2.22
2022-08-07T03:21:08.655Z,2.10
2022-08-07T03:24:17.955Z,2.12
2022-08-07T03:26:31.045Z,2.03
2022-08-07T03:29:01.714Z,2.40
2022-08-07T03:31:42.105Z,2.08
2022-08-07T03:34:18.739Z,2.00
2022-08-07T03:36:54.264Z,2.53
2022-08-07T03:39:46.155Z,2.30
2022-08-07T03:42:14.190Z,2.50
2022-08-07T03:44:42.644Z,2.42
2022-08-07T03:47:15.465Z,1.92
2022-08-07T03:49:47.799Z,2.05
2022-08-07T03:52:26.165Z,2.20
2022-08-07T03:55:07.969Z,2.22
2022-08-07T03:59:05.349Z,1.77
2022-08-07T04:00:30.534Z,2.30
2022-08-07T04:03:04.243Z,2.12
2022-08-07T04:05:40.509Z,1.93
2022-08-07T04:08:16.235Z,1.75
2022-08-07T04:10:54.755Z,1.80
2022-08-07T04:14:10.509Z,1.75
2022-08-07T04:16:31.017Z,1.75
2022-08-07T04:19:03.768Z,2.03
2022-08-07T04:21:33.342Z,2.00
2022-08-07T04:24:07.278Z,1.87
2022-08-07T04:26:39.765Z,2.00
2022-08-07T04:29:11.508Z,2.00
2022-08-07T04:32:03.325Z,2.37
2022-08-07T04:34:36.527Z,1.90
2022-08-07T04:37:20.156Z,1.70
2022-08-07T04:39:49.840Z,2.10
2022-08-07T04:42:17.607Z,1.83
2022-08-07T04:44:54.639Z,1.83
2022-08-07T04:47:56.997Z,1.92
2022-08-07T04:50:34.517Z,2.00
2022-08-07T04:54:01.691Z,1.60
2022-08-07T04:58:15.218Z,1.62
2022-08-07T05:00:11.845Z,1.53
2022-08-07T05:02:33.324Z,1.70
2022-08-07T05:05:52.631Z,1.60
2022-08-07T05:08:59.458Z,1.73
2022-08-07T05:11:58.269Z,1.50
2022-08-07T05:14:56.445Z,1.23
2022-08-07T05:17:52.180Z,1.73
2022-08-07T05:20:14.819Z,1.20
2022-08-07T05:22:47.594Z,1.50
2022-08-07T05:25:25.834Z,1.30
2022-08-07T05:28:20.997Z,1.43
2022-08-07T05:30:53.312Z,1.17
2022-08-07T05:33:22.550Z,1.00
2022-08-07T05:35:52.438Z,1.05
2022-08-07T05:39:01.014Z,1.15
2022-08-07T05:41:16.840Z,0.90
2022-08-07T05:44:08.020Z,1.27
2022-08-07T05:46:39.895Z,1.02
2022-08-07T05:49:12.636Z,1.10
2022-08-07T05:51:42.904Z,1.20
2022-08-07T05:54:30.943Z,1.13
2022-08-07T05:57:02.621Z,1.10
2022-08-07T05:59:38.900Z,0.95
2022-08-07T06:02:28.628Z,1.15
2022-08-07T06:05:03.504Z,1.20
2022-08-07T06:08:13.284Z,0.80
2022-08-07T06:10:20.356Z,0.82
2022-08-07T06:12:48.398Z,1.05
2022-08-07T06:15:19.672Z,1.10
2022-08-07T06:17:53.480Z,0.90
2022-08-07T06:20:49.681Z,1.00
2022-08-07T06:23:46.506Z,1.30
2022-08-07T06:26:06.524Z,1.10
2022-08-07T06:28:36.105Z,1.30
2022-08-07T06:31:03.849Z,0.80
2022-08-07T06:33:36.274Z,1.00
2022-08-07T06:36:12.777Z,1.05
2022-08-07T06:38:58.453Z,0.95
2022-08-07T06:42:02.510Z,1.10
2022-08-07T06:44:31.030Z,1.00
2022-08-07T06:47:12.486Z,1.23
2022-08-07T06:49:50.995Z,1.10
2022-08-07T06:52:31.907Z,1.10
2022-08-07T06:55:33.522Z,0.95
2022-08-07T06:58:04.300Z,1.15
2022-08-07T07:00:44.929Z,1.00
2022-08-07T07:03:13.904Z,1.10
2022-08-07T07:06:04.826Z,1.08
2022-08-07T07:08:56.798Z,1.00
2022-08-07T07:12:08.894Z,1.00
2022-08-07T07:14:18.704Z,1.10
2022-08-07T07:16:54.073Z,1.00
2022-08-07T07:19:56.404Z,1.00
2022-08-07T07:26:32.897Z,1.12
2022-08-07T07:28:42.207Z,1.40
2022-08-07T07:31:44.484Z,1.00
2022-08-07T07:34:18.954Z,0.95
2022-08-07T07:36:53.779Z,0.98
2022-08-07T07:39:26.339Z,1.10
2022-08-07T07:42:17.685Z,1.10
2022-08-07T07:44:49.568Z,0.98
2022-08-07T07:47:23.832Z,1.00
2022-08-07T07:50:29.687Z,1.17
2022-08-07T07:52:44.150Z,1.00
2022-08-07T07:55:16.560Z,1.10
2022-08-07T07:57:51.770Z,1.00
2022-08-07T08:00:29.417Z,0.85
2022-08-07T08:03:16.529Z,0.93
2022-08-07T08:05:54.496Z,1.20
2022-08-07T08:08:34.508Z,1.10
2022-08-07T08:11:16.128Z,0.98
2022-08-07T08:13:53.741Z,1.00
2022-08-07T08:16:35.185Z,1.05
2022-08-07T08:19:09.902Z,1.00
2022-08-07T08:22:09.817Z,0.90
2022-08-07T08:25:09.465Z,1.30
2022-08-07T08:27:56.753Z,0.90
2022-08-07T08:30:27.042Z,0.98
2022-08-07T08:32:57.987Z,1.08
2022-08-07T08:35:28.696Z,1.00
2022-08-07T08:38:05.629Z,1.10
2022-08-07T08:40:39.434Z,1.08
2022-08-07T08:43:15.975Z,1.17
2022-08-07T08:45:59.092Z,1.15
2022-08-07T08:48:58.657Z,1.20
2022-08-07T08:52:13.200Z,1.10
2022-08-07T08:55:09.237Z,1.20
2022-08-07T08:58:29.721Z,1.23
2022-08-07T09:01:15.392Z,0.90
2022-08-07T09:03:56.690Z,1.30
2022-08-07T09:06:55.930Z,1.20
2022-08-07T09:09:48.175Z,1.20
2022-08-07T09:12:53.340Z,1.30
2022-08-07T09:16:24.755Z,1.15
2022-08-07T09:18:58.616Z,1.23
2022-08-07T09:21:33.971Z,1.33
2022-08-07T09:24:58.658Z,1.30
2022-08-07T09:28:00.217Z,1.12
2022-08-07T09:30:55.203Z,1.40
2022-08-07T09:33:57.044Z,1.30
2022-08-07T09:37:03.999Z,1.35
2022-08-07T09:39:54.353Z,1.27
2022-08-07T09:42:38.705Z,1.30
2022-08-07T09:47:49.763Z,1.65
2022-08-07T09:48:29.802Z,1.30
2022-08-07T09:52:10.542Z,1.35
2022-08-07T09:54:40.838Z,1.55
2022-08-07T09:57:48.102Z,1.60
2022-08-07T10:00:24.401Z,1.52
2022-08-07T10:04:06.293Z,1.53
2022-08-07T10:06:35.712Z,1.80
2022-08-07T10:09:09.192Z,1.40
2022-08-07T10:12:04.724Z,1.60
2022-08-07T10:15:15.299Z,1.52
2022-08-07T10:18:10.864Z,1.83
2022-08-07T10:21:50.821Z,1.95
2022-08-07T10:24:09.910Z,1.85
2022-08-07T10:26:56.208Z,1.98
2022-08-07T10:29:58.642Z,2.03
2022-08-07T10:32:52.646Z,1.77
2022-08-07T10:35:55.036Z,1.85
2022-08-07T10:38:36.136Z,1.98
2022-08-07T10:41:52.393Z,2.03
2022-08-07T10:44:45.508Z,1.90
2022-08-07T10:47:52.550Z,2.20
2022-08-07T10:50:49.803Z,2.20
2022-08-07T10:53:44.124Z,2.10
2022-08-07T10:56:31.144Z,2.50
2022-08-07T10:59:24.147Z,2.55
2022-08-07T11:02:32.786Z,2.50
2022-08-07T11:05:48.994Z,2.37
2022-08-07T11:08:38.948Z,2.40
2022-08-07T11:11:30.023Z,2.28
2022-08-07T11:14:44.103Z,2.62
2022-08-07T11:17:43.124Z,2.40
2022-08-07T11:20:51.549Z,2.70
2022-08-07T11:23:54.519Z,2.58
2022-08-07T11:26:26.464Z,2.95
2022-08-07T11:29:22.493Z,3.22
2022-08-07T11:32:25.495Z,3.20
2022-08-07T11:35:13.062Z,3.22
2022-08-07T11:38:17.604Z,3.17
2022-08-07T11:41:30.971Z,3.30
2022-08-07T11:44:34.433Z,3.05
2022-08-07T11:47:38.828Z,3.00
2022-08-07T11:50:57.670Z,2.92
2022-08-07T11:53:56.989Z,2.60
2022-08-07T11:57:01.560Z,2.47
2022-08-07T12:00:12.184Z,2.72
2022-08-07T12:03:44.805Z,2.67
2022-08-07T12:06:37.772Z,3.20
2022-08-07T12:09:22.995Z,2.70
2022-08-07T12:12:14.551Z,2.65
2022-08-07T12:15:08.143Z,2.58
2022-08-07T12:18:08.270Z,2.77
2022-08-07T12:21:08.793Z,2.80
2022-08-07T12:24:06.633Z,2.65
2022-08-07T12:26:46.902Z,2.70
2022-08-07T12:29:38.670Z,2.45
2022-08-07T12:32:34.032Z,2.37
2022-08-07T12:35:05.651Z,2.58
2022-08-07T12:38:08.659Z,2.65
2022-08-07T12:40:47.183Z,2.85
2022-08-07T12:44:01.850Z,2.80
2022-08-07T12:46:34.500Z,2.90
2022-08-07T12:49:44.368Z,2.72
2022-08-07T12:52:18.086Z,2.80
2022-08-07T12:55:20.972Z,2.58
2022-08-07T12:58:01.027Z,2.58
2022-08-07T13:00:50.015Z,2.20
2022-08-07T13:03:56.264Z,2.58
2022-08-07T13:07:01.170Z,2.37
2022-08-07T13:10:20.150Z,2.80
2022-08-07T13:12:38.443Z,2.65
2022-08-07T13:15:37.485Z,2.50
2022-08-07T13:18:44.451Z,2.47
2022-08-07T13:21:51.125Z,2.75
2022-08-07T13:24:35.751Z,2.90
2022-08-07T13:28:05.663Z,2.67
2022-08-07T13:30:19.374Z,2.50
2022-08-07T13:34:30.113Z,2.58
2022-08-07T13:36:43.124Z,2.72
2022-08-07T13:39:49.826Z,2.70
2022-08-07T13:42:02.668Z,2.75
2022-08-07T13:44:40.936Z,2.67
2022-08-07T13:47:15.939Z,2.97
2022-08-07T13:50:32.601Z,2.47
2022-08-07T13:52:46.918Z,2.83
2022-08-07T13:55:26.726Z,2.75
2022-08-07T13:58:32.095Z,2.90
2022-08-07T14:01:09.376Z,2.80
2022-08-07T14:04:09.563Z,2.50
2022-08-07T14:06:43.689Z,2.87
2022-08-07T14:10:02.783Z,3.40
2022-08-07T14:12:54.766Z,2.67
2022-08-07T14:15:34.950Z,2.53
2022-08-07T14:18:28.337Z,2.40
2022-08-07T14:21:20.879Z,2.80
2022-08-07T14:24:10.001Z,2.50
2022-08-07T14:28:11.544Z,2.87
2022-08-07T14:30:11.614Z,2.90
2022-08-07T14:32:57.836Z,2.55
2022-08-07T14:35:43.139Z,2.90
2022-08-07T14:38:26.875Z,2.95
2022-08-07T14:46:56.579Z,2.92
2022-08-07T14:49:57.513Z,2.70
2022-08-07T14:52:28.938Z,2.97
2022-08-07T14:55:03.226Z,2.90
2022-08-07T14:57:54.667Z,3.00
2022-08-07T15:00:30.638Z,2.60
2022-08-07T15:03:18.834Z,2.65
2022-08-07T15:05:54.737Z,2.75
2022-08-07T15:08:50.182Z,2.80
2022-08-07T15:11:54.304Z,2.80
2022-08-07T15:14:17.501Z,2.97
2022-08-07T15:16:54.914Z,2.50
2022-08-07T15:20:23.642Z,2.92
2022-08-07T15:25:19.620Z,2.80
2022-08-07T15:28:32.124Z,2.80
2022-08-07T15:31:04.875Z,2.65
2022-08-07T15:33:36.801Z,2.92
2022-08-07T15:36:09.006Z,3.00
2022-08-07T15:38:51.670Z,3.20
2022-08-07T15:42:43.354Z,3.20
2022-08-07T15:47:16.785Z,3.00
2022-08-07T15:50:04.297Z,3.30
2022-08-07T15:52:38.087Z,3.15
2022-08-07T15:55:11.363Z,3.10
2022-08-07T15:57:48.631Z,3.25
2022-08-07T16:00:31.789Z,3.30
2022-08-07T16:03:21.697Z,3.17
2022-08-07T16:06:03.277Z,3.10
2022-08-07T16:08:38.318Z,2.90
2022-08-07T16:11:26.310Z,3.45
2022-08-07T16:14:03.128Z,3.12
2022-08-07T16:16:58.951Z,3.27
2022-08-07T16:19:43.041Z,3.20
2022-08-07T16:23:05.271Z,3.10
2022-08-07T16:25:54.099Z,2.95
2022-08-07T16:30:09.272Z,3.12
2022-08-07T16:32:33.188Z,2.97
2022-08-07T16:35:56.651Z,3.42
2022-08-07T16:39:00.534Z,3.03
2022-08-07T16:41:54.962Z,3.20
2022-08-07T16:44:47.168Z,3.17
2022-08-07T16:47:57.288Z,3.27
2022-08-07T16:51:13.375Z,2.97
2022-08-07T16:54:06.012Z,3.12
2022-08-07T16:57:04.370Z,3.65
2022-08-07T16:59:52.615Z,3.12
2022-08-07T17:02:53.251Z,3.40
2022-08-07T17:06:26.558Z,2.90
2022-08-07T17:09:10.573Z,2.78
2022-08-07T17:12:04.842Z,2.87
2022-08-07T17:14:47.988Z,2.40
2022-08-07T17:17:46.511Z,2.70
2022-08-07T17:20:35.484Z,2.28
2022-08-07T17:23:32.279Z,2.50
2022-08-07T17:26:23.618Z,2.47
2022-08-07T17:30:12.583Z,2.25
2022-08-07T17:32:16.250Z,2.50
2022-08-07T17:35:49.785Z,2.22
2022-08-07T17:38:34.349Z,2.28
2022-08-07T17:41:12.353Z,2.10
2022-08-07T17:44:05.807Z,1.90
2022-08-07T17:46:44.255Z,2.37
2022-08-07T17:49:24.348Z,2.12
2022-08-07T17:52:15.116Z,2.30
2022-08-07T17:54:55.810Z,2.35
2022-08-07T17:57:56.739Z,2.17
2022-08-07T18:00:33.168Z,2.23
2022-08-07T18:03:25.599Z,2.30
2022-08-07T18:06:16.427Z,2.03
2022-08-07T18:09:02.203Z,2.17
2022-08-07T18:12:20.000Z,2.08
2022-08-07T18:15:22.329Z,2.33
2022-08-07T18:18:45.174Z,2.75
2022-08-07T18:21:57.874Z,2.30
2022-08-07T18:25:01.742Z,2.33
2022-08-07T18:27:57.472Z,2.50
2022-08-07T18:30:43.367Z,2.13
2022-08-07T18:33:54.754Z,2.08
2022-08-07T18:36:33.817Z,1.98
2022-08-07T18:40:08.567Z,2.42
2022-08-07T18:42:16.309Z,2.20
2022-08-07T18:45:43.275Z,2.27
2022-08-07T18:50:04.874Z,2.40
2022-08-07T18:52:35.136Z,2.30
2022-08-07T18:54:43.274Z,2.62
2022-08-07T18:57:31.476Z,2.40
2022-08-07T19:00:33.130Z,1.50
2022-08-07T19:03:36.221Z,1.90
2022-08-07T19:06:16.398Z,1.83
2022-08-07T19:08:57.019Z,1.75
2022-08-07T19:12:04.107Z,1.60
2022-08-07T19:14:59.426Z,1.60
2022-08-07T19:18:02.358Z,1.60
2022-08-07T19:21:09.299Z,1.65
2022-08-07T19:23:59.111Z,1.45
2022-08-07T19:27:09.032Z,1.70
2022-08-07T19:30:58.633Z,1.60
2022-08-07T19:32:25.931Z,1.65
2022-08-07T19:35:07.655Z,1.70
2022-08-07T19:37:55.585Z,1.60
2022-08-07T19:40:33.432Z,1.60
2022-08-07T19:43:10.702Z,1.60
2022-08-07T19:46:08.043Z,1.35
2022-08-07T19:48:53.845Z,1.62
2022-08-07T19:51:51.809Z,1.35
2022-08-07T19:54:34.647Z,1.40
2022-08-07T19:58:00.063Z,1.60
2022-08-07T20:00:02.930Z,1.60
2022-08-07T20:02:56.592Z,1.73
2022-08-07T20:05:59.645Z,1.30
2022-08-07T20:08:25.443Z,1.23
2022-08-07T20:11:02.149Z,1.50
2022-08-07T20:13:42.198Z,1.30
2022-08-07T20:16:15.778Z,1.45
2022-08-07T20:19:01.273Z,1.60
2022-08-07T20:21:41.610Z,1.25
2022-08-07T20:24:19.053Z,1.40
2022-08-07T20:26:52.403Z,1.35
2022-08-07T20:29:48.274Z,1.50
2022-08-07T20:32:39.727Z,1.40
2022-08-07T20:35:22.043Z,1.55
2022-08-07T20:37:59.479Z,1.33
2022-08-07T20:40:32.035Z,1.25
2022-08-07T20:43:14.884Z,1.30
2022-08-07T20:46:27.106Z,1.50
2022-08-07T20:49:53.981Z,1.20
2022-08-07T20:51:35.856Z,1.50
2022-08-07T20:54:09.399Z,1.48
2022-08-07T20:56:48.219Z,1.50
2022-08-07T21:00:04.242Z,1.30
2022-08-07T21:02:31.476Z,1.42
2022-08-07T21:05:04.562Z,1.20
2022-08-07T21:07:39.513Z,1.50
2022-08-07T21:10:14.824Z,1.60
2022-08-07T21:12:56.000Z,1.25
2022-08-07T21:15:47.569Z,1.33
2022-08-07T21:18:25.443Z,1.40
2022-08-07T21:20:59.402Z,1.50
2022-08-07T21:23:54.543Z,1.08
2022-08-07T21:26:42.922Z,1.10
2022-08-07T21:29:30.665Z,1.30
2022-08-07T21:32:47.309Z,1.40
2022-08-07T21:36:04.272Z,1.30
2022-08-07T21:38:50.118Z,1.30
2022-08-07T21:41:25.410Z,1.27
2022-08-07T21:44:28.245Z,1.30
2022-08-07T21:47:12.121Z,1.00
2022-08-07T21:50:01.822Z,1.37
2022-08-07T21:52:56.768Z,1.30
2022-08-07T21:55:31.905Z,1.50
2022-08-07T21:58:32.279Z,1.20
2022-08-07T22:02:07.187Z,1.40
2022-08-07T22:04:22.961Z,1.40
2022-08-07T22:07:06.807Z,1.83
2022-08-07T22:09:53.838Z,1.50
2022-08-07T22:12:31.543Z,1.23
2022-08-07T22:16:42.711Z,1.20
2022-08-07T22:18:03.710Z,1.30
2022-08-07T22:20:45.624Z,1.25
2022-08-07T22:23:33.491Z,1.30
2022-08-07T22:26:26.997Z,1.40
2022-08-07T22:29:13.825Z,1.30
2022-08-07T22:32:20.512Z,1.20
2022-08-07T22:34:53.997Z,1.15
2022-08-07T22:38:02.852Z,1.20
2022-08-07T22:41:07.631Z,1.20
2022-08-07T22:43:52.187Z,1.20
2022-08-07T22:47:04.107Z,1.70
2022-08-07T22:49:54.884Z,1.60
2022-08-07T22:52:40.162Z,1.20
2022-08-07T22:55:23.405Z,1.27
2022-08-07T22:58:16.770Z,1.50
2022-08-07T23:00:54.335Z,1.05
2022-08-07T23:03:58.989Z,1.17
2022-08-07T23:06:58.106Z,1.45
2022-08-07T23:10:03.771Z,1.37
2022-08-07T23:12:41.055Z,1.30
2022-08-07T23:16:04.234Z,1.20
2022-08-07T23:18:10.820Z,1.08
2022-08-07T23:20:56.049Z,1.42
2022-08-07T23:24:06.183Z,1.20
2022-08-07T23:27:07.706Z,1.30
2022-08-07T23:30:39.213Z,1.23
2022-08-07T23:34:33.967Z,1.33
2022-08-07T23:37:17.913Z,1.17
2022-08-07T23:39:59.626Z,1.52
2022-08-07T23:42:49.492Z,1.40
2022-08-07T23:46:02.279Z,1.20
2022-08-07T23:48:38.037Z,1.20
2022-08-07T23:53:00.899Z,1.25
2022-08-07T23:54:19.829Z,1.20
2022-08-07T23:57:13.910Z,1.10
